createdAt,value
2019-05-25T00:00:02.856Z,10.3
2019-05-25T00:05:03.187Z,10.1
2019-05-25T00:10:02.704Z,10.1
2019-05-25T00:15:03.254Z,10.1
2019-05-25T00:20:02.780Z,10.1
2019-05-25T00:25:03.325Z,10.1
2019-05-25T00:30:02.843Z,10.1
2019-05-25T00:35:03.393Z,10.0
2019-05-25T00:40:02.913Z,9.6
2019-05-25T00:45:03.451Z,9.5
2019-05-25T00:50:02.981Z,9.3
2019-05-25T00:55:02.505Z,9.1
2019-05-25T01:00:03.040Z,9.1
2019-05-25T01:05:02.522Z,9.0
2019-05-25T01:10:02.380Z,9.0
2019-05-25T01:15:02.073Z,9.0
2019-05-25T01:20:02.592Z,9.0
2019-05-25T01:25:03.114Z,9.0
2019-05-25T01:30:02.615Z,9.0
2019-05-25T01:35:03.136Z,9.0
2019-05-25T01:40:02.685Z,9.0
2019-05-25T01:45:03.189Z,9.0
2019-05-25T01:50:02.741Z,9.0
2019-05-25T01:55:03.249Z,8.8
2019-05-25T02:00:02.711Z,8.8
2019-05-25T02:05:03.233Z,8.6
2019-05-25T02:10:02.772Z,8.6
2019-05-25T02:15:03.375Z,8.6
2019-05-25T02:20:02.937Z,8.5
2019-05-25T02:25:17.130Z,8.8
2019-05-25T02:30:03.136Z,9.1
2019-05-25T02:35:02.604Z,9.5
2019-05-25T02:40:03.184Z,9.5
2019-05-25T02:45:02.699Z,9.3
2019-05-25T02:50:03.252Z,9.6
2019-05-25T02:55:02.739Z,9.8
2019-05-25T03:00:03.343Z,10.0
2019-05-25T03:05:02.801Z,10.1
2019-05-25T03:10:03.486Z,10.3
2019-05-25T03:15:03.493Z,10.6
2019-05-25T03:21:08.045Z,11.0
2019-05-25T03:25:02.527Z,11.0
2019-05-25T03:30:03.214Z,10.6
2019-05-25T03:35:02.707Z,10.8
2019-05-25T03:40:03.280Z,10.8
2019-05-25T03:45:02.878Z,11.0
2019-05-25T03:50:03.356Z,11.1
2019-05-25T03:55:02.856Z,11.3
2019-05-25T04:00:03.411Z,11.3
2019-05-25T04:05:02.914Z,11.1
2019-05-25T04:12:13.083Z,11.1
2019-05-25T04:15:02.656Z,11.1
2019-05-25T04:20:03.215Z,11.3
2019-05-25T04:25:02.719Z,11.3
2019-05-25T04:30:03.170Z,11.3
2019-05-25T04:35:02.634Z,11.6
2019-05-25T04:40:03.144Z,11.8
2019-05-25T04:45:02.664Z,11.8
2019-05-25T04:50:03.144Z,11.6
2019-05-25T04:55:02.732Z,11.3
2019-05-25T05:00:03.179Z,11.6
2019-05-25T05:05:02.772Z,11.6
2019-05-25T05:10:03.525Z,12.0
2019-05-25T05:15:02.247Z,12.0
2019-05-25T05:20:02.793Z,12.6
2019-05-25T05:25:03.349Z,13.3
2019-05-25T05:30:02.864Z,13.1
2019-05-25T05:35:03.400Z,12.8
2019-05-25T05:40:02.846Z,12.8
2019-05-25T05:45:03.426Z,12.6
2019-05-25T05:50:02.921Z,12.8
2019-05-25T05:55:03.435Z,13.1
2019-05-25T06:00:02.958Z,13.5
2019-05-25T06:05:03.158Z,13.5
2019-05-25T06:10:02.945Z,13.8
2019-05-25T06:15:03.507Z,13.8
2019-05-25T06:20:03.088Z,13.6
2019-05-25T06:25:02.626Z,13.6
2019-05-25T06:30:03.159Z,13.8
2019-05-25T06:35:02.676Z,14.0
2019-05-25T06:40:03.150Z,13.6
2019-05-25T06:45:02.643Z,13.8
2019-05-25T06:50:03.111Z,13.8
2019-05-25T06:55:02.600Z,14.5
2019-05-25T07:00:03.157Z,14.6
2019-05-25T07:05:02.674Z,15.1
2019-05-25T07:10:03.219Z,15.1
2019-05-25T07:15:02.737Z,15.1
2019-05-25T07:20:03.292Z,15.3
2019-05-25T07:25:02.126Z,15.8
2019-05-25T07:30:02.618Z,16.2
2019-05-25T07:35:03.187Z,16.2
2019-05-25T07:40:02.710Z,15.8
2019-05-25T07:45:03.155Z,16.2
2019-05-25T07:50:02.679Z,16.3
2019-05-25T07:55:03.220Z,16.6
2019-05-25T08:00:01.844Z,16.7
2019-05-25T08:05:03.477Z,17.0
2019-05-25T08:10:03.036Z,17.1
2019-05-25T08:15:02.566Z,16.0
2019-05-25T08:20:03.069Z,16.6
2019-05-25T08:25:02.637Z,16.3
2019-05-25T08:30:03.144Z,16.7
2019-05-25T08:35:02.689Z,17.1
2019-05-25T08:40:03.210Z,20.1
2019-05-25T08:45:02.753Z,20.2
2019-05-25T08:50:03.288Z,18.2
2019-05-25T08:55:03.037Z,17.1
2019-05-25T09:00:02.649Z,18.8
2019-05-25T09:05:03.172Z,18.8
2019-05-25T09:10:02.719Z,17.5
2019-05-25T09:15:05.994Z,17.5
2019-05-25T09:20:02.687Z,17.1
2019-05-25T09:25:03.201Z,17.5
2019-05-25T09:30:02.747Z,19.7
2019-05-25T09:35:03.272Z,22.0
2019-05-25T09:40:02.817Z,20.7
2019-05-25T09:45:03.331Z,19.2
2019-05-25T09:50:02.815Z,17.7
2019-05-25T09:55:03.308Z,21.2
2019-05-25T10:00:02.770Z,20.6
2019-05-25T10:05:03.260Z,19.7
2019-05-25T10:10:02.754Z,19.0
2019-05-25T10:15:03.247Z,19.3
2019-05-25T10:20:02.706Z,18.8
2019-05-25T10:25:03.181Z,18.7
2019-05-25T10:30:01.826Z,18.8
2019-05-25T10:35:03.342Z,19.0
2019-05-25T10:40:02.872Z,18.5
2019-05-25T10:45:03.506Z,19.7
2019-05-25T10:50:03.152Z,19.5
2019-05-25T10:55:02.660Z,19.5
2019-05-25T11:00:03.212Z,18.8
2019-05-25T11:05:02.657Z,19.7
2019-05-25T11:10:03.173Z,20.0
2019-05-25T11:15:02.606Z,19.2
2019-05-25T11:20:03.149Z,18.7
2019-05-25T11:25:02.654Z,18.7
2019-05-25T11:30:09.140Z,19.1
2019-05-25T11:35:02.521Z,20.1
2019-05-25T11:40:03.070Z,20.2
2019-05-25T11:45:02.628Z,20.7
2019-05-25T11:50:03.063Z,21.2
2019-05-25T11:55:02.542Z,22.3
2019-05-25T12:00:03.016Z,22.7
2019-05-25T12:05:02.511Z,20.6
2019-05-25T12:10:02.969Z,20.8
2019-05-25T12:15:02.471Z,20.2
2019-05-25T12:20:03.019Z,20.8
2019-05-25T12:25:02.543Z,22.5
2019-05-25T12:30:03.079Z,22.1
2019-05-25T12:35:02.647Z,20.1
2019-05-25T12:40:03.157Z,22.7
2019-05-25T12:45:02.682Z,23.1
2019-05-25T12:50:03.222Z,21.5
2019-05-25T12:57:11.333Z,22.1
2019-05-25T13:00:14.779Z,23.8
2019-05-25T13:05:02.832Z,23.0
2019-05-25T13:10:03.343Z,24.5
2019-05-25T13:15:02.873Z,20.0
2019-05-25T13:20:03.510Z,20.6
2019-05-25T13:25:03.050Z,21.8
2019-05-25T13:30:03.440Z,20.2
2019-05-25T13:35:03.062Z,20.2
2019-05-25T13:40:02.651Z,20.7
2019-05-25T13:45:03.164Z,23.2
2019-05-25T13:50:02.684Z,22.6
2019-05-25T13:55:03.136Z,23.7
2019-05-25T14:00:02.650Z,24.8
2019-05-25T14:05:03.188Z,24.0
2019-05-25T14:10:02.706Z,26.0
2019-05-25T14:15:03.342Z,23.8
2019-05-25T14:20:02.882Z,23.7
2019-05-25T14:25:03.415Z,22.7
2019-05-25T14:30:02.939Z,21.5
2019-05-25T14:35:03.498Z,22.0
2019-05-25T14:40:02.971Z,21.2
2019-05-25T14:45:02.562Z,21.8
2019-05-25T14:50:03.177Z,21.6
2019-05-25T14:55:02.884Z,21.0
2019-05-25T15:00:03.388Z,20.3
2019-05-25T15:05:02.899Z,20.8
2019-05-25T15:10:03.446Z,23.8
2019-05-25T15:15:02.980Z,22.7
2019-05-25T15:20:02.510Z,22.5
2019-05-25T15:25:03.154Z,21.2
2019-05-25T15:30:02.613Z,20.6
2019-05-25T15:35:03.162Z,20.2
2019-05-25T15:40:02.702Z,20.3
2019-05-25T15:45:03.183Z,20.1
2019-05-25T15:50:02.651Z,20.2
2019-05-25T15:55:03.199Z,19.7
2019-05-25T16:00:02.710Z,20.0
2019-05-25T16:05:03.374Z,19.5
2019-05-25T16:10:02.879Z,19.3
2019-05-25T16:15:03.428Z,20.0
2019-05-25T16:20:02.954Z,20.7
2019-05-25T16:25:03.496Z,21.6
2019-05-25T16:30:03.013Z,22.1
2019-05-25T16:35:02.568Z,20.3
2019-05-25T16:40:03.031Z,19.7
2019-05-25T16:45:05.490Z,19.5
2019-05-25T16:50:03.386Z,20.0
2019-05-25T16:55:02.897Z,21.2
2019-05-25T17:00:03.325Z,20.3
2019-05-25T17:05:02.913Z,19.3
2019-05-25T17:10:03.423Z,19.3
2019-05-25T17:15:02.906Z,19.2
2019-05-25T17:20:03.539Z,19.1
2019-05-25T17:25:03.068Z,19.1
2019-05-25T17:30:02.697Z,20.7
2019-05-25T17:35:03.242Z,21.2
2019-05-25T17:40:02.812Z,20.8
2019-05-25T17:45:03.297Z,19.7
2019-05-25T17:50:02.857Z,18.6
2019-05-25T17:55:03.406Z,19.5
2019-05-25T18:00:02.928Z,19.1
2019-05-25T18:05:03.461Z,19.0
2019-05-25T18:10:02.954Z,19.0
2019-05-25T18:15:03.507Z,19.0
2019-05-25T18:20:03.140Z,18.8
2019-05-25T18:25:02.638Z,18.6
2019-05-25T18:30:03.185Z,18.6
2019-05-25T18:35:02.672Z,18.5
2019-05-25T18:40:03.195Z,18.5
2019-05-25T18:45:02.817Z,18.1
2019-05-25T18:50:03.333Z,17.7
2019-05-25T18:55:02.839Z,17.3
2019-05-25T19:00:03.346Z,17.2
2019-05-25T19:05:02.912Z,17.0
2019-05-25T19:10:03.459Z,16.7
2019-05-25T19:15:02.979Z,16.7
2019-05-25T19:20:01.770Z,16.7
2019-05-25T19:25:03.246Z,16.3
2019-05-25T19:30:02.772Z,16.2
2019-05-25T19:35:03.310Z,16.0
2019-05-25T19:42:12.893Z,16.0
2019-05-25T19:45:03.391Z,16.0
2019-05-25T19:50:05.073Z,15.8
2019-05-25T19:55:02.934Z,15.6
2019-05-25T20:00:03.420Z,15.6
2019-05-25T20:05:15.905Z,15.6
2019-05-25T20:10:02.624Z,15.6
2019-05-25T20:15:03.175Z,15.6
2019-05-25T20:20:02.736Z,15.5
2019-05-25T20:25:03.238Z,15.1
2019-05-25T20:30:02.752Z,14.6
2019-05-25T20:35:03.308Z,14.5
2019-05-25T20:40:03.134Z,14.6
2019-05-25T20:45:02.789Z,14.6
2019-05-25T20:50:03.319Z,14.8
2019-05-25T20:55:02.801Z,14.5
2019-05-25T21:00:03.269Z,14.5
2019-05-25T21:05:02.820Z,14.3
2019-05-25T21:10:03.363Z,14.0
2019-05-25T21:15:03.001Z,13.5
2019-05-25T21:20:02.481Z,13.3
2019-05-25T21:25:05.673Z,13.3
2019-05-25T21:30:02.752Z,13.5
2019-05-25T21:35:03.241Z,13.3
2019-05-25T21:40:02.710Z,13.1
2019-05-25T21:45:03.267Z,12.8
2019-05-25T21:50:02.780Z,12.6
2019-05-25T21:55:03.379Z,12.5
2019-05-25T22:00:02.849Z,12.6
2019-05-25T22:05:03.431Z,12.5
2019-05-25T22:10:02.920Z,12.3
2019-05-25T22:15:03.458Z,12.1
2019-05-25T22:20:03.007Z,12.0
2019-05-25T22:25:02.591Z,11.6
2019-05-25T22:30:03.158Z,12.0
2019-05-25T22:35:02.664Z,12.0
2019-05-25T22:40:03.121Z,12.0
2019-05-25T22:45:02.656Z,12.0
2019-05-25T22:50:03.217Z,12.1
2019-05-25T22:55:02.742Z,12.3
2019-05-25T23:00:02.530Z,12.6
2019-05-25T23:05:02.679Z,12.5
2019-05-25T23:10:03.245Z,12.5
2019-05-25T23:15:02.733Z,12.8
2019-05-25T23:20:03.274Z,12.8
2019-05-25T23:25:02.720Z,12.8
2019-05-25T23:30:03.252Z,12.5
2019-05-25T23:35:02.759Z,12.3
2019-05-25T23:40:03.309Z,12.3
2019-05-25T23:45:02.837Z,11.8
2019-05-25T23:50:03.387Z,11.3
2019-05-25T23:55:05.058Z,11.3
